createdAt,value
2019-04-11T00:01:04.391Z,8.70
2019-04-11T00:03:30.400Z,8.53
2019-04-11T00:05:56.416Z,9.20
2019-04-11T00:08:22.823Z,8.53
2019-04-11T00:10:49.283Z,8.13
2019-04-11T00:13:21.589Z,9.10
2019-04-11T00:15:44.498Z,8.57
2019-04-11T00:18:10.599Z,8.70
2019-04-11T00:20:37.016Z,9.23
2019-04-11T00:23:03.474Z,9.03
2019-04-11T00:25:29.507Z,8.83
2019-04-11T00:27:55.983Z,9.40
2019-04-11T00:30:22.368Z,9.07
2019-04-11T00:32:49.805Z,8.63
2019-04-11T00:35:17.377Z,9.27
2019-04-11T00:37:43.777Z,9.20
2019-04-11T00:40:10.994Z,8.67
2019-04-11T00:42:37.482Z,9.50
2019-04-11T00:45:05.421Z,8.87
2019-04-11T00:47:33.156Z,9.70
2019-04-11T00:49:59.662Z,9.90
2019-04-11T00:52:26.058Z,10.00
2019-04-11T00:54:53.215Z,8.63
2019-04-11T00:57:19.983Z,9.80
2019-04-11T00:59:47.428Z,9.23
2019-04-11T01:02:13.647Z,9.23
2019-04-11T01:04:39.660Z,9.57
2019-04-11T01:07:06.863Z,10.03
2019-04-11T01:09:32.991Z,9.73
2019-04-11T01:12:00.435Z,9.53
2019-04-11T01:14:27.822Z,9.10
2019-04-11T01:16:54.854Z,9.73
2019-04-11T01:19:21.061Z,9.57
2019-04-11T01:21:47.699Z,8.73
2019-04-11T01:24:15.628Z,10.03
2019-04-11T01:26:41.779Z,10.27
2019-04-11T01:29:09.181Z,10.80
2019-04-11T01:31:37.854Z,10.37
2019-04-11T01:34:04.565Z,10.20
2019-04-11T01:36:31.136Z,9.70
2019-04-11T01:38:59.579Z,10.37
2019-04-11T01:41:26.699Z,10.67
2019-04-11T01:43:59.228Z,10.13
2019-04-11T01:46:20.918Z,9.60
2019-04-11T01:48:57.573Z,9.70
2019-04-11T01:51:24.098Z,9.77
2019-04-11T01:53:51.063Z,9.90
2019-04-11T01:56:17.611Z,10.93
2019-04-11T01:58:44.008Z,10.40
2019-04-11T02:01:28.565Z,10.23
2019-04-11T02:04:05.823Z,9.27
2019-04-11T02:06:32.555Z,10.00
2019-04-11T02:08:59.808Z,10.47
2019-04-11T02:11:26.272Z,10.10
2019-04-11T02:14:05.947Z,11.43
2019-04-11T02:16:21.047Z,10.77
2019-04-11T02:18:47.760Z,10.00
2019-04-11T02:21:14.291Z,10.33
2019-04-11T02:23:48.559Z,10.40
2019-04-11T02:26:16.796Z,9.90
2019-04-11T02:28:43.288Z,10.10
2019-04-11T02:31:10.331Z,9.97
2019-04-11T02:33:38.775Z,9.57
2019-04-11T02:36:07.196Z,9.37
2019-04-11T02:38:34.798Z,10.10
2019-04-11T02:41:03.662Z,9.63
2019-04-11T02:43:29.892Z,9.23
2019-04-11T02:46:08.992Z,10.50
2019-04-11T02:48:24.617Z,10.37
2019-04-11T02:50:51.205Z,9.17
2019-04-11T02:53:18.334Z,10.37
2019-04-11T02:55:46.581Z,9.93
2019-04-11T02:58:14.372Z,9.87
2019-04-11T03:00:42.269Z,9.47
2019-04-11T03:03:10.259Z,10.13
2019-04-11T03:05:37.462Z,9.93
2019-04-11T03:08:10.869Z,10.53
2019-04-11T03:10:34.042Z,10.20
2019-04-11T03:13:02.850Z,9.83
2019-04-11T03:15:43.055Z,9.93
2019-04-11T03:18:02.098Z,9.70
2019-04-11T03:20:33.696Z,8.93
2019-04-11T03:22:58.203Z,10.00
2019-04-11T03:25:22.709Z,8.63
2019-04-11T03:27:49.550Z,9.37
2019-04-11T03:30:23.467Z,8.77
2019-04-11T03:38:05.757Z,9.97
2019-04-11T03:40:30.641Z,9.53
2019-04-11T03:42:55.493Z,9.77
2019-04-11T03:45:20.576Z,10.00
2019-04-11T03:47:50.545Z,9.87
2019-04-11T03:50:09.321Z,10.17
2019-04-11T03:52:34.638Z,9.43
2019-04-11T03:55:08.223Z,9.83
2019-04-11T03:57:34.290Z,9.73
2019-04-11T04:00:01.756Z,10.03
2019-04-11T04:02:30.606Z,10.53
2019-04-11T04:04:57.278Z,9.10
2019-04-11T04:07:24.251Z,9.50
2019-04-11T04:09:51.355Z,10.23
2019-04-11T04:12:20.864Z,9.77
2019-04-11T04:14:59.146Z,10.17
2019-04-11T04:17:32.864Z,9.93
2019-04-11T04:20:04.891Z,9.80
2019-04-11T04:22:33.201Z,10.37
2019-04-11T04:25:00.916Z,10.70
2019-04-11T04:27:28.404Z,10.77
2019-04-11T04:29:58.446Z,9.87
2019-04-11T04:32:25.127Z,10.33
2019-04-11T04:34:53.148Z,10.93
2019-04-11T04:37:21.460Z,10.00
2019-04-11T04:39:48.109Z,10.63
2019-04-11T04:42:26.397Z,10.23
2019-04-11T04:44:46.710Z,10.57
2019-04-11T04:47:23.826Z,9.57
2019-04-11T04:49:43.733Z,10.00
2019-04-11T04:52:14.106Z,10.23
2019-04-11T04:54:38.826Z,9.70
2019-04-11T04:57:08.561Z,9.37
2019-04-11T04:59:34.017Z,11.80
2019-04-11T05:02:01.690Z,10.00
2019-04-11T05:04:29.721Z,11.20
2019-04-11T05:06:56.343Z,11.80
2019-04-11T05:09:23.570Z,10.83
2019-04-11T05:11:50.785Z,11.90
2019-04-11T05:14:18.756Z,10.40
2019-04-11T05:16:46.107Z,11.23
2019-04-11T05:19:12.871Z,10.73
2019-04-11T05:21:39.361Z,10.73
2019-04-11T05:24:06.212Z,9.93
2019-04-11T05:26:33.321Z,10.10
2019-04-11T05:29:00.596Z,10.00
2019-04-11T05:31:26.993Z,11.20
2019-04-11T05:33:53.910Z,11.00
2019-04-11T05:36:20.702Z,10.30
2019-04-11T05:38:47.125Z,11.13
2019-04-11T05:41:13.830Z,11.10
2019-04-11T05:43:41.645Z,11.10
2019-04-11T05:46:23.820Z,11.63
2019-04-11T05:48:39.066Z,10.23
2019-04-11T05:51:06.822Z,10.73
2019-04-11T05:53:35.105Z,11.10
2019-04-11T05:56:03.685Z,10.07
2019-04-11T05:58:32.491Z,10.87
2019-04-11T06:01:11.320Z,11.10
2019-04-11T06:03:41.049Z,12.23
2019-04-11T06:06:24.727Z,11.43
2019-04-11T06:08:56.218Z,10.80
2019-04-11T06:11:32.355Z,11.30
2019-04-11T06:14:03.802Z,10.80
2019-04-11T06:16:37.041Z,11.30
2019-04-11T06:19:01.251Z,12.27
2019-04-11T06:21:33.694Z,11.80
2019-04-11T06:24:08.297Z,12.50
2019-04-11T06:26:36.567Z,11.80
2019-04-11T06:29:20.955Z,11.30
2019-04-11T06:32:00.431Z,11.97
2019-04-11T06:34:28.700Z,12.40
2019-04-11T06:37:14.714Z,12.80
2019-04-11T06:39:43.282Z,13.23
2019-04-11T06:42:25.431Z,11.87
2019-04-11T06:44:54.330Z,14.13
2019-04-11T06:47:25.725Z,12.90
2019-04-11T06:50:13.175Z,13.20
2019-04-11T06:52:41.645Z,12.80
2019-04-11T06:55:12.914Z,12.33
2019-04-11T06:57:46.475Z,13.27
2019-04-11T07:00:33.605Z,14.07
2019-04-11T07:03:05.606Z,13.50
2019-04-11T07:05:35.126Z,13.60
2019-04-11T07:08:03.380Z,13.73
2019-04-11T07:10:31.731Z,12.90
2019-04-11T07:13:03.492Z,13.80
2019-04-11T07:15:31.943Z,14.30
2019-04-11T07:18:16.462Z,13.77
2019-04-11T07:20:52.195Z,13.03
2019-04-11T07:23:37.053Z,12.53
2019-04-11T07:26:20.891Z,14.03
2019-04-11T07:28:52.330Z,12.63
2019-04-11T07:31:38.052Z,14.83
2019-04-11T07:34:06.581Z,12.67
2019-04-11T07:36:51.140Z,14.20
2019-04-11T07:39:20.104Z,13.80
2019-04-11T07:41:53.819Z,13.73
2019-04-11T07:44:37.095Z,12.43
2019-04-11T07:47:18.096Z,13.50
2019-04-11T07:49:44.859Z,12.77
2019-04-11T07:52:12.319Z,11.87
2019-04-11T07:54:39.005Z,13.80
2019-04-11T07:57:13.395Z,12.23
2019-04-11T08:00:00.081Z,13.87
2019-04-11T08:02:47.805Z,12.97
2019-04-11T08:05:19.247Z,13.13
2019-04-11T08:07:51.360Z,13.30
2019-04-11T08:10:20.579Z,13.37
2019-04-11T08:12:48.035Z,12.70
2019-04-11T08:15:33.486Z,14.17
2019-04-11T08:18:02.019Z,12.70
2019-04-11T08:20:33.577Z,13.07
2019-04-11T08:23:01.864Z,13.37
2019-04-11T08:25:29.787Z,12.40
2019-04-11T08:28:06.190Z,14.13
2019-04-11T08:30:34.992Z,14.30
2019-04-11T08:33:08.792Z,13.17
2019-04-11T08:35:36.922Z,14.00
2019-04-11T08:38:14.787Z,13.20
2019-04-11T08:40:55.484Z,14.30
2019-04-11T08:43:31.036Z,14.00
2019-04-11T08:45:59.732Z,15.47
2019-04-11T08:48:28.860Z,13.83
2019-04-11T08:51:08.089Z,13.60
2019-04-11T08:53:37.128Z,12.87
2019-04-11T08:56:05.215Z,13.20
2019-04-11T08:58:42.700Z,14.60
2019-04-11T09:01:13.842Z,13.43
2019-04-11T09:04:02.212Z,14.03
2019-04-11T09:06:30.604Z,13.23
2019-04-11T09:09:15.377Z,14.83
2019-04-11T09:11:44.744Z,13.87
2019-04-11T09:14:22.209Z,13.63
2019-04-11T09:16:54.153Z,14.67
2019-04-11T09:19:31.318Z,14.43
2019-04-11T09:22:18.447Z,14.07
2019-04-11T09:25:03.686Z,14.33
2019-04-11T09:27:43.242Z,14.47
2019-04-11T09:30:15.911Z,14.13
2019-04-11T09:33:00.329Z,14.20
2019-04-11T09:35:35.256Z,12.80
2019-04-11T09:38:04.379Z,14.40
2019-04-11T09:40:52.023Z,13.63
2019-04-11T09:43:20.150Z,13.97
2019-04-11T09:45:52.419Z,13.43
2019-04-11T09:48:35.871Z,13.90
2019-04-11T09:51:11.441Z,13.80
2019-04-11T09:53:40.921Z,13.62
2019-04-11T09:56:27.031Z,15.15
2019-04-11T09:59:05.327Z,13.48
2019-04-11T10:01:51.731Z,15.00
2019-04-11T10:04:19.942Z,14.10
2019-04-11T10:07:01.223Z,14.30
2019-04-11T10:09:41.942Z,13.72
2019-04-11T10:12:27.633Z,14.23
2019-04-11T10:14:53.875Z,13.15
2019-04-11T10:17:24.528Z,14.63
2019-04-11T10:19:51.855Z,14.43
2019-04-11T10:22:20.668Z,12.93
2019-04-11T10:24:51.935Z,14.30
2019-04-11T10:27:36.927Z,13.60
2019-04-11T10:30:24.045Z,14.18
2019-04-11T10:33:10.834Z,14.33
2019-04-11T10:35:50.762Z,13.32
2019-04-11T10:38:20.340Z,14.45
2019-04-11T10:41:00.870Z,13.80
2019-04-11T10:43:28.699Z,14.80
2019-04-11T10:46:07.159Z,15.20
2019-04-11T10:48:46.728Z,15.50
2019-04-11T10:51:15.023Z,14.55
2019-04-11T10:53:43.692Z,14.50
2019-04-11T10:56:15.970Z,14.87
2019-04-11T10:58:46.546Z,14.13
2019-04-11T11:01:31.729Z,14.75
2019-04-11T11:04:03.379Z,16.02
2019-04-11T11:06:33.903Z,14.55
2019-04-11T11:09:18.471Z,14.05
2019-04-11T11:11:49.887Z,15.15
2019-04-11T11:14:20.713Z,14.23
2019-04-11T11:16:52.735Z,14.70
2019-04-11T11:19:45.566Z,16.37
2019-04-11T11:22:17.482Z,13.50
2019-04-11T11:25:02.963Z,15.53
2019-04-11T11:27:30.408Z,16.00
2019-04-11T11:30:19.265Z,14.03
2019-04-11T11:32:45.396Z,13.58
2019-04-11T11:35:16.379Z,16.27
2019-04-11T11:37:45.247Z,16.50
2019-04-11T11:40:16.555Z,15.23
2019-04-11T11:43:00.989Z,16.15
2019-04-11T11:45:35.416Z,15.25
2019-04-11T11:48:08.861Z,15.08
2019-04-11T11:50:34.507Z,15.70
2019-04-11T11:53:22.660Z,15.05
2019-04-11T11:55:51.643Z,15.00
2019-04-11T11:58:35.356Z,13.98
2019-04-11T12:01:08.159Z,15.75
2019-04-11T12:03:33.256Z,15.58
2019-04-11T12:06:01.547Z,14.53
2019-04-11T12:08:48.158Z,15.35
2019-04-11T12:11:15.780Z,15.88
2019-04-11T12:13:47.490Z,15.50
2019-04-11T12:16:22.184Z,15.23
2019-04-11T12:18:53.131Z,14.90
2019-04-11T12:21:23.854Z,15.05
2019-04-11T12:23:59.839Z,15.15
2019-04-11T12:26:20.285Z,15.30
2019-04-11T12:28:52.193Z,15.28
2019-04-11T12:31:19.729Z,15.40
2019-04-11T12:33:48.119Z,14.98
2019-04-11T12:36:16.823Z,15.98
2019-04-11T12:38:45.302Z,13.93
2019-04-11T12:41:13.735Z,15.85
2019-04-11T12:43:42.022Z,16.35
2019-04-11T12:46:10.267Z,15.23
2019-04-11T12:48:38.552Z,16.07
2019-04-11T12:51:06.908Z,16.05
2019-04-11T12:53:33.516Z,14.68
2019-04-11T12:56:01.868Z,14.90
2019-04-11T12:58:30.160Z,15.32
2019-04-11T13:00:58.409Z,15.60
2019-04-11T13:03:26.689Z,16.02
2019-04-11T13:05:54.988Z,15.15
2019-04-11T13:08:23.544Z,14.68
2019-04-11T13:10:49.987Z,15.98
2019-04-11T13:13:18.260Z,16.15
2019-04-11T13:15:46.787Z,15.53
2019-04-11T13:18:15.155Z,15.70
2019-04-11T13:20:43.459Z,14.53
2019-04-11T13:23:11.711Z,14.73
2019-04-11T13:25:40.102Z,15.65
2019-04-11T13:28:07.012Z,15.03
2019-04-11T13:30:35.503Z,15.58
2019-04-11T13:33:02.085Z,14.10
2019-04-11T13:35:29.579Z,14.00
2019-04-11T13:37:57.835Z,14.38
2019-04-11T13:40:26.224Z,14.40
2019-04-11T13:42:54.591Z,14.58
2019-04-11T13:45:20.999Z,14.80
2019-04-11T13:47:49.256Z,14.63
2019-04-11T13:50:17.115Z,13.95
2019-04-11T13:52:45.743Z,13.98
2019-04-11T13:55:14.744Z,14.63
2019-04-11T13:57:43.007Z,14.40
2019-04-11T14:00:14.275Z,14.60
2019-04-11T14:02:50.950Z,14.28
2019-04-11T14:05:12.699Z,13.08
2019-04-11T14:07:39.951Z,13.22
2019-04-11T14:10:08.335Z,13.25
2019-04-11T14:12:35.686Z,13.72
2019-04-11T14:15:06.804Z,13.93
2019-04-11T14:17:35.289Z,13.80
2019-04-11T14:20:04.022Z,14.05
2019-04-11T14:22:32.347Z,13.55
2019-04-11T14:25:00.649Z,12.95
2019-04-11T14:27:28.868Z,13.18
2019-04-11T14:29:57.358Z,13.70
2019-04-11T14:32:25.620Z,14.00
2019-04-11T14:34:53.866Z,13.22
2019-04-11T14:37:22.182Z,12.68
2019-04-11T14:39:50.459Z,12.88
2019-04-11T14:42:18.891Z,12.28
2019-04-11T14:44:45.638Z,12.37
2019-04-11T14:47:13.907Z,12.23
2019-04-11T14:49:40.835Z,12.00
2019-04-11T14:52:09.696Z,12.93
2019-04-11T14:54:37.957Z,12.90
2019-04-11T14:57:06.246Z,11.10
2019-04-11T14:59:34.632Z,12.82
2019-04-11T15:02:02.939Z,12.28
2019-04-11T15:04:31.215Z,13.18
2019-04-11T15:06:59.487Z,12.82
2019-04-11T15:09:27.739Z,12.68
2019-04-11T15:11:56.062Z,12.58
2019-04-11T15:14:24.309Z,13.35
2019-04-11T15:16:52.628Z,13.13
2019-04-11T15:19:19.083Z,12.33
2019-04-11T15:21:47.438Z,12.05
2019-04-11T15:24:14.228Z,11.65
2019-04-11T15:26:42.484Z,12.15
2019-04-11T15:29:13.575Z,12.43
2019-04-11T15:31:40.935Z,12.58
2019-04-11T15:34:09.327Z,12.05
2019-04-11T15:36:39.801Z,13.68
2019-04-11T15:39:07.987Z,12.63
2019-04-11T15:41:34.652Z,12.58
2019-04-11T15:44:03.050Z,12.70
2019-04-11T15:46:31.291Z,12.93
2019-04-11T15:48:59.587Z,12.30
2019-04-11T15:51:27.851Z,12.90
2019-04-11T15:53:55.270Z,11.53
2019-04-11T15:56:23.521Z,11.65
2019-04-11T15:58:51.830Z,11.85
2019-04-11T16:01:20.084Z,11.25
2019-04-11T16:03:48.331Z,11.03
2019-04-11T16:06:16.634Z,10.88
2019-04-11T16:08:43.765Z,11.35
2019-04-11T16:11:12.984Z,10.82
2019-04-11T16:13:41.437Z,11.60
2019-04-11T16:16:11.978Z,11.75
2019-04-11T16:18:38.684Z,10.45
2019-04-11T16:21:17.977Z,11.38
2019-04-11T16:23:37.111Z,11.30
2019-04-11T16:26:05.504Z,11.27
2019-04-11T16:28:35.814Z,11.17
2019-04-11T16:31:02.081Z,11.87
2019-04-11T16:33:30.355Z,11.80
2019-04-11T16:35:58.663Z,12.00
2019-04-11T16:38:26.991Z,11.97
2019-04-11T16:40:55.286Z,11.13
2019-04-11T16:43:24.085Z,12.07
2019-04-11T16:45:54.639Z,11.03
2019-04-11T16:48:20.094Z,11.97
2019-04-11T16:50:46.479Z,11.50
2019-04-11T16:53:13.020Z,11.87
2019-04-11T16:55:41.937Z,11.37
2019-04-11T16:58:07.837Z,11.60
2019-04-11T17:00:34.207Z,11.50
2019-04-11T17:03:00.662Z,12.00
2019-04-11T17:05:27.227Z,10.40
2019-04-11T17:07:56.266Z,11.77
2019-04-11T17:10:26.804Z,10.40
2019-04-11T17:12:53.840Z,10.77
2019-04-11T17:15:21.713Z,10.80
2019-04-11T17:17:48.159Z,10.30
2019-04-11T17:20:14.607Z,10.87
2019-04-11T17:22:41.072Z,10.50
2019-04-11T17:25:07.522Z,10.30
2019-04-11T17:27:34.035Z,10.20
2019-04-11T17:30:00.590Z,10.27
2019-04-11T17:32:27.051Z,10.83
2019-04-11T17:34:53.628Z,10.30
2019-04-11T17:37:20.092Z,10.63
2019-04-11T17:39:46.535Z,11.10
2019-04-11T17:42:13.376Z,10.73
2019-04-11T17:44:40.455Z,10.30
2019-04-11T17:47:07.019Z,9.93
2019-04-11T17:49:33.468Z,10.53
2019-04-11T17:52:00.037Z,9.80
2019-04-11T17:54:26.389Z,10.13
2019-04-11T17:56:54.876Z,9.47
2019-04-11T17:59:21.223Z,9.63
2019-04-11T18:01:47.687Z,10.47
2019-04-11T18:04:14.179Z,10.10
2019-04-11T18:06:40.729Z,9.60
2019-04-11T18:09:08.783Z,10.20
2019-04-11T18:11:35.247Z,10.47
2019-04-11T18:14:01.799Z,10.00
2019-04-11T18:16:28.880Z,10.17
2019-04-11T18:18:56.612Z,10.33
2019-04-11T18:21:22.966Z,10.10
2019-04-11T18:23:50.102Z,9.07
2019-04-11T18:26:19.108Z,9.53
2019-04-11T18:28:45.392Z,10.10
2019-04-11T18:31:11.854Z,9.40
2019-04-11T18:33:38.331Z,9.57
2019-04-11T18:36:04.985Z,9.80
2019-04-11T18:38:31.997Z,9.53
2019-04-11T18:40:59.111Z,9.00
2019-04-11T18:43:25.915Z,8.93
2019-04-11T18:45:52.388Z,9.73
2019-04-11T18:48:18.933Z,9.23
2019-04-11T18:50:45.387Z,9.87
2019-04-11T18:53:11.851Z,9.13
2019-04-11T18:55:38.399Z,8.80
2019-04-11T18:58:04.999Z,9.30
2019-04-11T19:00:31.516Z,8.97
2019-04-11T19:02:57.906Z,8.50
2019-04-11T19:05:29.068Z,8.80
2019-04-11T19:07:52.835Z,9.33
2019-04-11T19:10:19.398Z,8.73
2019-04-11T19:12:46.454Z,8.93
2019-04-11T19:15:16.118Z,8.27
2019-04-11T19:17:43.901Z,8.43
2019-04-11T19:20:10.779Z,7.87
2019-04-11T19:22:38.510Z,8.10
2019-04-11T19:25:05.397Z,10.23
2019-04-11T19:27:31.965Z,7.93
2019-04-11T19:29:58.443Z,8.27
2019-04-11T19:32:25.057Z,8.17
2019-04-11T19:34:51.756Z,8.37
2019-04-11T19:37:18.293Z,8.33
2019-04-11T19:39:45.948Z,8.67
2019-04-11T19:42:12.793Z,7.70
2019-04-11T19:44:39.264Z,8.10
2019-04-11T19:47:05.827Z,8.67
2019-04-11T19:49:32.298Z,8.57
2019-04-11T19:52:00.935Z,8.47
2019-04-11T19:54:27.027Z,8.37
2019-04-11T19:56:55.373Z,9.30
2019-04-11T19:59:21.846Z,8.10
2019-04-11T20:01:48.199Z,8.37
2019-04-11T20:04:14.667Z,8.73
2019-04-11T20:06:41.015Z,8.70
2019-04-11T20:09:07.524Z,8.60
2019-04-11T20:11:33.995Z,8.70
2019-04-11T20:14:02.861Z,8.50
2019-04-11T20:16:28.861Z,9.03
2019-04-11T20:18:57.465Z,9.20
2019-04-11T20:21:23.988Z,8.53
2019-04-11T20:23:50.469Z,8.47
2019-04-11T20:26:19.937Z,8.93
2019-04-11T20:28:45.423Z,8.20
2019-04-11T20:31:11.975Z,8.47
2019-04-11T20:33:38.363Z,9.03
2019-04-11T20:36:04.831Z,8.53
2019-04-11T20:38:31.278Z,8.47
2019-04-11T20:40:57.644Z,8.97
2019-04-11T20:43:25.441Z,8.40
2019-04-11T20:45:53.494Z,9.03
2019-04-11T20:48:20.146Z,8.23
2019-04-11T20:50:46.608Z,8.93
2019-04-11T20:53:13.496Z,9.50
2019-04-11T20:55:40.089Z,9.17
2019-04-11T20:58:10.114Z,8.70
2019-04-11T21:00:35.052Z,8.97
2019-04-11T21:03:01.507Z,8.70
2019-04-11T21:05:30.495Z,9.03
2019-04-11T21:07:56.367Z,9.03
2019-04-11T21:10:22.832Z,9.10
2019-04-11T21:12:49.309Z,8.87
2019-04-11T21:15:15.966Z,8.87
2019-04-11T21:17:42.311Z,8.80
2019-04-11T21:20:08.989Z,9.03
2019-04-11T21:22:35.530Z,9.60
2019-04-11T21:25:02.390Z,9.73
2019-04-11T21:27:29.488Z,9.40
2019-04-11T21:29:59.803Z,9.00
2019-04-11T21:32:24.579Z,9.03
2019-04-11T21:34:50.969Z,9.13
2019-04-11T21:37:17.519Z,8.50
2019-04-11T21:39:43.908Z,8.67
2019-04-11T21:42:10.452Z,8.73
2019-04-11T21:44:37.022Z,8.90
2019-04-11T21:47:03.374Z,8.53
2019-04-11T21:49:29.835Z,8.87
2019-04-11T21:51:56.397Z,9.17
2019-04-11T21:54:22.857Z,9.13
2019-04-11T21:56:50.270Z,9.20
2019-04-11T21:59:20.058Z,9.07
2019-04-11T22:01:45.240Z,9.10
2019-04-11T22:04:11.688Z,8.13
2019-04-11T22:06:38.078Z,9.20
2019-04-11T22:09:05.931Z,9.30
2019-04-11T22:11:32.425Z,9.47
2019-04-11T22:13:58.885Z,9.33
2019-04-11T22:16:25.452Z,8.57
2019-04-11T22:18:52.007Z,9.17
2019-04-11T22:21:18.479Z,9.77
2019-04-11T22:23:48.913Z,9.10
2019-04-11T22:26:13.290Z,9.17
2019-04-11T22:28:39.654Z,9.47
2019-04-11T22:31:06.126Z,8.77
2019-04-11T22:33:34.483Z,8.87
2019-04-11T22:36:00.952Z,9.63
2019-04-11T22:38:30.733Z,9.73
2019-04-11T22:40:55.670Z,8.90
2019-04-11T22:43:24.619Z,9.87
2019-04-11T22:45:50.499Z,9.23
2019-04-11T22:48:16.947Z,9.07
2019-04-11T22:50:43.379Z,8.10
2019-04-11T22:53:12.848Z,8.80
2019-04-11T22:55:38.934Z,8.73
2019-04-11T22:58:06.651Z,9.00
2019-04-11T23:00:33.108Z,9.37
2019-04-11T23:03:01.459Z,9.17
2019-04-11T23:05:27.931Z,8.97
2019-04-11T23:07:54.386Z,8.10
2019-04-11T23:10:20.831Z,8.73
2019-04-11T23:12:47.300Z,8.83
2019-04-11T23:15:15.110Z,9.13
2019-04-11T23:17:44.092Z,8.90
2019-04-11T23:20:11.884Z,9.03
2019-04-11T23:22:40.089Z,8.67
2019-04-11T23:25:07.303Z,8.23
2019-04-11T23:27:33.807Z,8.47
2019-04-11T23:30:00.252Z,9.47
2019-04-11T23:32:26.718Z,8.53
2019-04-11T23:34:53.386Z,8.57
2019-04-11T23:37:21.018Z,8.47
2019-04-11T23:39:48.322Z,8.57
2019-04-11T23:42:14.946Z,9.23
2019-04-11T23:44:41.391Z,9.10
2019-04-11T23:47:07.859Z,8.63
2019-04-11T23:49:34.227Z,8.90
2019-04-11T23:52:00.720Z,8.50
2019-04-11T23:54:29.237Z,9.03
2019-04-11T23:56:55.467Z,9.47
2019-04-11T23:59:21.811Z,8.57
